createdAt,value
2023-04-26T00:27:53.960Z,5.90
2023-04-26T02:08:04.531Z,4.70
2023-04-26T03:29:40.280Z,4.50
2023-04-26T04:10:05.039Z,4.10
2023-04-26T04:15:34.406Z,4.10
2023-04-26T04:26:46.120Z,4.30
2023-04-26T04:32:03.602Z,4.40
2023-04-26T04:49:02.424Z,4.60
2023-04-26T04:54:25.693Z,4.70
2023-04-26T04:59:53.441Z,4.80
2023-04-26T05:10:57.029Z,5.10
2023-04-26T05:16:09.836Z,5.30
2023-04-26T05:21:26.032Z,5.50
2023-04-26T05:26:42.484Z,5.80
2023-04-26T05:32:05.119Z,6.00
2023-04-26T05:37:21.662Z,6.30
2023-04-26T05:42:42.440Z,6.60
2023-04-26T05:59:14.455Z,7.60
2023-04-26T06:04:35.297Z,7.70
2023-04-26T06:10:03.668Z,8.10
2023-04-26T06:15:18.425Z,8.30
2023-04-26T06:26:50.258Z,8.80
2023-04-26T06:32:09.608Z,8.80
2023-04-26T06:48:55.586Z,9.50
2023-04-26T06:54:22.959Z,10.00
2023-04-26T06:59:53.976Z,10.20
2023-04-26T07:05:19.403Z,10.60
2023-04-26T07:28:42.322Z,11.50
2023-04-26T07:39:43.460Z,12.60
2023-04-26T07:50:37.127Z,12.50
2023-04-26T08:02:43.359Z,13.30
2023-04-26T08:08:12.218Z,13.70
2023-04-26T08:19:09.997Z,13.40
2023-04-26T08:30:06.332Z,12.30
2023-04-26T08:41:14.660Z,11.00
2023-04-26T08:52:25.598Z,12.30
2023-04-26T08:57:52.619Z,12.10
2023-04-26T09:03:23.261Z,11.70
2023-04-26T09:08:54.855Z,10.80
2023-04-26T09:14:05.565Z,10.70
2023-04-26T09:19:26.724Z,10.10
2023-04-26T09:25:00.265Z,10.10
2023-04-26T09:36:27.617Z,10.70
2023-04-26T09:41:57.024Z,10.80
2023-04-26T09:47:26.195Z,10.40
2023-04-26T09:53:11.655Z,11.10
2023-04-26T09:58:27.915Z,11.10
2023-04-26T10:03:42.368Z,11.50
2023-04-26T10:08:47.216Z,11.70
2023-04-26T10:14:25.014Z,12.00
2023-04-26T10:19:41.663Z,12.50
2023-04-26T10:24:47.136Z,12.70
2023-04-26T10:30:02.804Z,13.00
2023-04-26T10:35:15.426Z,12.40
2023-04-26T10:40:29.156Z,11.50
2023-04-26T10:45:34.557Z,11.30
2023-04-26T10:51:08.254Z,11.20
2023-04-26T10:56:28.491Z,11.40
2023-04-26T11:01:46.661Z,11.10
2023-04-26T11:06:58.757Z,10.80
2023-04-26T11:12:06.030Z,10.70
2023-04-26T11:17:11.603Z,11.50
2023-04-26T11:22:17.054Z,11.60
2023-04-26T11:27:23.984Z,11.40
2023-04-26T11:32:35.182Z,11.00
2023-04-26T11:37:40.588Z,10.90
2023-04-26T11:42:52.115Z,11.10
2023-04-26T11:47:58.554Z,11.50
2023-04-26T11:53:08.406Z,11.40
2023-04-26T11:58:23.292Z,12.20
2023-04-26T12:03:38.385Z,12.70
2023-04-26T12:08:47.986Z,12.60
2023-04-26T12:13:54.120Z,12.70
2023-04-26T12:19:01.347Z,13.10
2023-04-26T12:24:08.083Z,13.00
2023-04-26T12:29:13.624Z,13.20
2023-04-26T12:34:18.894Z,12.80
2023-04-26T12:39:24.146Z,12.40
2023-04-26T12:44:29.486Z,12.30
2023-04-26T12:49:34.784Z,12.70
2023-04-26T12:54:39.942Z,12.80
2023-04-26T12:59:45.099Z,13.00
2023-04-26T13:04:50.555Z,12.50
2023-04-26T13:09:57.347Z,11.90
2023-04-26T13:15:02.668Z,11.80
2023-04-26T13:20:09.006Z,12.00
2023-04-26T13:25:16.053Z,12.00
2023-04-26T13:30:22.656Z,12.60
2023-04-26T13:35:28.253Z,12.70
2023-04-26T13:40:33.576Z,12.40
2023-04-26T13:45:43.625Z,12.30
2023-04-26T13:50:48.702Z,12.50
2023-04-26T13:55:53.935Z,12.30
2023-04-26T14:00:59.254Z,11.90
2023-04-26T14:06:04.789Z,11.60
2023-04-26T14:11:12.634Z,11.40
2023-04-26T14:16:18.812Z,11.20
2023-04-26T14:21:27.908Z,11.10
2023-04-26T14:26:33.688Z,11.20
2023-04-26T14:31:39.150Z,11.20
2023-04-26T14:36:44.654Z,10.90
2023-04-26T14:41:50.079Z,10.90
2023-04-26T14:46:56.352Z,11.20
2023-04-26T14:52:04.906Z,11.80
2023-04-26T14:57:15.367Z,12.00
2023-04-26T15:02:22.658Z,12.00
2023-04-26T15:07:32.592Z,12.10
2023-04-26T15:12:36.212Z,11.60
2023-04-26T15:17:41.518Z,11.40
2023-04-26T15:22:46.753Z,11.60
2023-04-26T15:27:52.064Z,12.00
2023-04-26T15:32:57.755Z,12.20
2023-04-26T15:38:05.893Z,12.20
2023-04-26T15:43:12.211Z,12.20
2023-04-26T15:48:19.837Z,11.90
2023-04-26T15:53:27.296Z,11.50
2023-04-26T15:58:32.762Z,11.40
2023-04-26T16:03:47.489Z,11.30
2023-04-26T16:08:51.774Z,11.50
2023-04-26T16:13:58.481Z,11.50
2023-04-26T16:19:03.910Z,11.20
2023-04-26T16:24:11.122Z,11.00
2023-04-26T16:29:16.714Z,10.90
2023-04-26T16:34:23.928Z,10.80
2023-04-26T16:39:29.312Z,10.80
2023-04-26T16:44:34.832Z,10.80
2023-04-26T16:49:40.647Z,10.70
2023-04-26T16:54:46.023Z,10.60
2023-04-26T16:59:53.279Z,10.50
2023-04-26T17:04:58.637Z,10.40
2023-04-26T17:10:04.530Z,10.30
2023-04-26T17:15:10.450Z,10.10
2023-04-26T17:20:16.762Z,10.00
2023-04-26T17:25:23.175Z,9.80
2023-04-26T17:30:30.383Z,9.70
2023-04-26T17:35:36.184Z,9.70
2023-04-26T17:40:41.769Z,9.70
2023-04-26T17:45:47.211Z,9.70
2023-04-26T17:50:54.245Z,9.60
2023-04-26T17:56:04.352Z,9.30
2023-04-26T18:01:18.563Z,9.20
2023-04-26T18:06:24.074Z,9.00
2023-04-26T18:11:29.372Z,8.80
2023-04-26T18:16:34.660Z,8.60
2023-04-26T18:21:41.474Z,8.50
2023-04-26T18:26:47.598Z,8.30
2023-04-26T18:32:00.770Z,8.10
2023-04-26T18:37:07.389Z,8.00
2023-04-26T18:42:23.647Z,7.90
2023-04-26T18:47:28.971Z,7.70
2023-04-26T18:52:36.234Z,7.60
2023-04-26T18:57:41.313Z,7.50
2023-04-26T19:02:46.758Z,7.40
2023-04-26T19:07:55.188Z,7.30
2023-04-26T19:13:00.552Z,7.20
2023-04-26T19:18:06.015Z,7.10
2023-04-26T19:23:16.657Z,7.00
2023-04-26T19:28:21.895Z,6.90
2023-04-26T19:33:28.676Z,6.80
2023-04-26T19:38:34.010Z,6.60
2023-04-26T19:43:39.335Z,6.40
2023-04-26T19:48:44.607Z,6.20
2023-04-26T19:53:50.489Z,6.10
2023-04-26T19:58:56.080Z,5.90
2023-04-26T20:04:02.044Z,5.70
2023-04-26T20:09:07.925Z,5.60
2023-04-26T20:14:13.663Z,5.50
2023-04-26T20:19:21.849Z,5.30
2023-04-26T20:24:29.665Z,5.10
2023-04-26T20:29:34.890Z,4.90
2023-04-26T20:34:40.010Z,4.90
2023-04-26T20:39:45.140Z,4.80
2023-04-26T20:44:50.387Z,4.70
2023-04-26T20:49:55.618Z,4.60
2023-04-26T20:55:00.949Z,4.50
2023-04-26T21:00:08.514Z,4.40
2023-04-26T21:05:13.734Z,4.30
2023-04-26T21:10:19.560Z,4.20
2023-04-26T21:15:24.750Z,4.10
2023-04-26T21:20:30.050Z,4.10
2023-04-26T21:25:36.035Z,4.10
2023-04-26T21:30:41.411Z,4.10
2023-04-26T21:35:46.531Z,4.20
2023-04-26T21:40:51.670Z,4.20
2023-04-26T21:45:59.615Z,4.10
2023-04-26T21:51:04.809Z,4.10
2023-04-26T21:56:10.942Z,4.00
2023-04-26T22:01:17.105Z,3.90
2023-04-26T22:06:22.423Z,3.70
2023-04-26T22:11:28.488Z,3.60
2023-04-26T22:16:33.863Z,3.50
2023-04-26T22:21:39.230Z,3.50
2023-04-26T22:26:44.454Z,3.30
2023-04-26T22:31:49.641Z,3.30
2023-04-26T22:36:59.034Z,3.40
2023-04-26T22:42:03.220Z,3.50
2023-04-26T22:47:08.526Z,3.50
2023-04-26T22:52:23.652Z,3.50
2023-04-26T22:57:20.764Z,3.50
2023-04-26T23:02:26.104Z,3.40
2023-04-26T23:07:31.703Z,3.40
2023-04-26T23:12:37.212Z,3.40
2023-04-26T23:17:42.560Z,3.40
2023-04-26T23:22:47.877Z,3.30
2023-04-26T23:27:53.107Z,3.20
2023-04-26T23:32:58.271Z,3.10
2023-04-26T23:38:03.504Z,3.20
2023-04-26T23:43:08.756Z,3.30
2023-04-26T23:48:15.725Z,3.30
2023-04-26T23:53:20.997Z,3.40
2023-04-26T23:58:26.730Z,3.50
